sensor_id;sensor_type;location;lat;lon;timestamp;P1;durP1;ratioP1;P2;durP2;ratioP2
10343;SDS011;5217;43.960;10.954;2022-11-30T00:01:29;16.43;;;14.93;;
10343;SDS011;5217;43.960;10.954;2022-11-30T00:03:58;16.50;;;15.00;;
10343;SDS011;5217;43.960;10.954;2022-11-30T00:06:27;17.20;;;15.50;;
10343;SDS011;5217;43.960;10.954;2022-11-30T00:08:56;17.97;;;16.33;;
10343;SDS011;5217;43.960;10.954;2022-11-30T00:11:25;17.20;;;15.57;;
10343;SDS011;5217;43.960;10.954;2022-11-30T00:13:55;15.53;;;14.13;;
10343;SDS011;5217;43.960;10.954;2022-11-30T00:16:23;15.70;;;14.20;;
10343;SDS011;5217;43.960;10.954;2022-11-30T00:18:53;15.27;;;13.83;;
10343;SDS011;5217;43.960;10.954;2022-11-30T00:21:21;14.47;;;13.23;;
10343;SDS011;5217;43.960;10.954;2022-11-30T00:23:51;14.33;;;13.03;;
10343;SDS011;5217;43.960;10.954;2022-11-30T00:26:19;15.43;;;14.03;;
10343;SDS011;5217;43.960;10.954;2022-11-30T00:28:48;13.30;;;12.10;;
10343;SDS011;5217;43.960;10.954;2022-11-30T00:31:17;13.30;;;12.10;;
10343;SDS011;5217;43.960;10.954;2022-11-30T00:33:46;14.83;;;13.43;;
10343;SDS011;5217;43.960;10.954;2022-11-30T00:36:15;14.50;;;13.17;;
10343;SDS011;5217;43.960;10.954;2022-11-30T00:38:44;15.30;;;13.77;;
10343;SDS011;5217;43.960;10.954;2022-11-30T00:41:15;14.87;;;13.47;;
10343;SDS011;5217;43.960;10.954;2022-11-30T00:43:44;15.10;;;13.70;;
10343;SDS011;5217;43.960;10.954;2022-11-30T00:46:13;14.20;;;12.93;;
10343;SDS011;5217;43.960;10.954;2022-11-30T00:48:41;13.73;;;12.53;;
10343;SDS011;5217;43.960;10.954;2022-11-30T00:51:10;14.43;;;13.13;;
10343;SDS011;5217;43.960;10.954;2022-11-30T00:53:40;14.30;;;13.00;;
10343;SDS011;5217;43.960;10.954;2022-11-30T00:56:09;15.00;;;13.50;;
10343;SDS011;5217;43.960;10.954;2022-11-30T00:58:39;19.17;;;17.17;;
10343;SDS011;5217;43.960;10.954;2022-11-30T01:01:08;16.40;;;14.80;;
10343;SDS011;5217;43.960;10.954;2022-11-30T01:03:36;14.57;;;13.17;;
10343;SDS011;5217;43.960;10.954;2022-11-30T01:06:05;12.93;;;11.63;;
10343;SDS011;5217;43.960;10.954;2022-11-30T01:08:35;13.40;;;12.17;;
10343;SDS011;5217;43.960;10.954;2022-11-30T01:11:04;13.87;;;12.57;;
10343;SDS011;5217;43.960;10.954;2022-11-30T01:13:35;13.90;;;12.60;;
10343;SDS011;5217;43.960;10.954;2022-11-30T01:16:08;14.13;;;12.83;;
10343;SDS011;5217;43.960;10.954;2022-11-30T01:18:38;14.60;;;13.23;;
10343;SDS011;5217;43.960;10.954;2022-11-30T01:21:06;13.50;;;12.30;;
10343;SDS011;5217;43.960;10.954;2022-11-30T01:23:35;15.03;;;13.50;;
10343;SDS011;5217;43.960;10.954;2022-11-30T01:26:04;14.13;;;12.73;;
10343;SDS011;5217;43.960;10.954;2022-11-30T01:28:34;14.03;;;12.63;;
10343;SDS011;5217;43.960;10.954;2022-11-30T01:31:03;13.73;;;12.40;;
10343;SDS011;5217;43.960;10.954;2022-11-30T01:33:34;14.33;;;13.03;;
10343;SDS011;5217;43.960;10.954;2022-11-30T01:36:03;13.90;;;12.70;;
10343;SDS011;5217;43.960;10.954;2022-11-30T01:38:34;13.13;;;12.03;;
10343;SDS011;5217;43.960;10.954;2022-11-30T01:41:03;12.20;;;11.10;;
10343;SDS011;5217;43.960;10.954;2022-11-30T01:43:36;13.27;;;12.07;;
10343;SDS011;5217;43.960;10.954;2022-11-30T01:46:13;13.13;;;12.00;;
10343;SDS011;5217;43.960;10.954;2022-11-30T01:48:53;13.37;;;12.13;;
10343;SDS011;5217;43.960;10.954;2022-11-30T01:51:27;14.13;;;12.73;;
10343;SDS011;5217;43.960;10.954;2022-11-30T01:54:00;13.50;;;12.13;;
10343;SDS011;5217;43.960;10.954;2022-11-30T01:56:30;14.10;;;12.83;;
10343;SDS011;5217;43.960;10.954;2022-11-30T01:58:59;14.77;;;13.47;;
10343;SDS011;5217;43.960;10.954;2022-11-30T02:01:27;14.30;;;13.07;;
10343;SDS011;5217;43.960;10.954;2022-11-30T02:03:58;14.50;;;13.20;;
10343;SDS011;5217;43.960;10.954;2022-11-30T02:06:31;15.97;;;14.47;;
10343;SDS011;5217;43.960;10.954;2022-11-30T02:08:59;15.27;;;13.87;;
10343;SDS011;5217;43.960;10.954;2022-11-30T02:11:28;15.43;;;14.00;;
10343;SDS011;5217;43.960;10.954;2022-11-30T02:14:02;14.90;;;13.60;;
10343;SDS011;5217;43.960;10.954;2022-11-30T02:16:44;14.03;;;12.73;;
10343;SDS011;5217;43.960;10.954;2022-11-30T02:22:26;15.10;;;13.70;;
10343;SDS011;5217;43.960;10.954;2022-11-30T02:25:09;16.47;;;14.97;;
10343;SDS011;5217;43.960;10.954;2022-11-30T02:27:58;17.20;;;15.50;;
10343;SDS011;5217;43.960;10.954;2022-11-30T02:30:42;17.07;;;15.47;;
10343;SDS011;5217;43.960;10.954;2022-11-30T02:33:16;15.57;;;14.17;;
10343;SDS011;5217;43.960;10.954;2022-11-30T02:35:48;15.03;;;13.63;;
10343;SDS011;5217;43.960;10.954;2022-11-30T02:38:21;16.17;;;14.67;;
10343;SDS011;5217;43.960;10.954;2022-11-30T02:40:51;15.90;;;14.30;;
10343;SDS011;5217;43.960;10.954;2022-11-30T02:43:20;15.67;;;14.17;;
10343;SDS011;5217;43.960;10.954;2022-11-30T02:45:55;16.83;;;15.23;;
10343;SDS011;5217;43.960;10.954;2022-11-30T02:48:30;15.87;;;14.40;;
10343;SDS011;5217;43.960;10.954;2022-11-30T02:51:06;14.87;;;13.47;;
10343;SDS011;5217;43.960;10.954;2022-11-30T02:53:38;15.10;;;13.70;;
10343;SDS011;5217;43.960;10.954;2022-11-30T02:56:07;15.43;;;14.03;;
10343;SDS011;5217;43.960;10.954;2022-11-30T02:58:36;14.37;;;13.07;;
10343;SDS011;5217;43.960;10.954;2022-11-30T03:01:06;15.57;;;14.10;;
10343;SDS011;5217;43.960;10.954;2022-11-30T03:03:34;15.00;;;13.63;;
10343;SDS011;5217;43.960;10.954;2022-11-30T03:06:03;14.30;;;13.00;;
10343;SDS011;5217;43.960;10.954;2022-11-30T03:08:31;14.23;;;12.93;;
10343;SDS011;5217;43.960;10.954;2022-11-30T03:11:00;14.57;;;13.27;;
10343;SDS011;5217;43.960;10.954;2022-11-30T03:13:29;14.37;;;12.97;;
10343;SDS011;5217;43.960;10.954;2022-11-30T03:16:03;14.90;;;13.57;;
10343;SDS011;5217;43.960;10.954;2022-11-30T03:18:34;14.03;;;12.83;;
10343;SDS011;5217;43.960;10.954;2022-11-30T03:21:03;15.17;;;13.73;;
10343;SDS011;5217;43.960;10.954;2022-11-30T03:23:33;14.17;;;12.87;;
10343;SDS011;5217;43.960;10.954;2022-11-30T03:26:02;13.80;;;12.50;;
10343;SDS011;5217;43.960;10.954;2022-11-30T03:28:31;14.37;;;13.07;;
10343;SDS011;5217;43.960;10.954;2022-11-30T03:31:00;14.13;;;12.73;;
10343;SDS011;5217;43.960;10.954;2022-11-30T03:33:30;13.83;;;12.63;;
10343;SDS011;5217;43.960;10.954;2022-11-30T03:35:58;13.60;;;12.40;;
10343;SDS011;5217;43.960;10.954;2022-11-30T03:38:27;14.03;;;12.73;;
10343;SDS011;5217;43.960;10.954;2022-11-30T03:41:00;14.80;;;13.50;;
10343;SDS011;5217;43.960;10.954;2022-11-30T03:43:29;14.47;;;13.17;;
10343;SDS011;5217;43.960;10.954;2022-11-30T03:45:58;13.30;;;12.10;;
10343;SDS011;5217;43.960;10.954;2022-11-30T03:48:27;13.47;;;12.27;;
10343;SDS011;5217;43.960;10.954;2022-11-30T03:50:57;15.23;;;13.83;;
10343;SDS011;5217;43.960;10.954;2022-11-30T03:53:26;14.37;;;13.07;;
10343;SDS011;5217;43.960;10.954;2022-11-30T03:55:54;13.87;;;12.57;;
10343;SDS011;5217;43.960;10.954;2022-11-30T03:58:24;15.37;;;13.87;;
10343;SDS011;5217;43.960;10.954;2022-11-30T04:00:57;14.13;;;12.83;;
10343;SDS011;5217;43.960;10.954;2022-11-30T04:03:27;15.07;;;13.57;;
10343;SDS011;5217;43.960;10.954;2022-11-30T04:05:58;15.17;;;13.77;;
10343;SDS011;5217;43.960;10.954;2022-11-30T04:08:27;14.67;;;13.37;;
10343;SDS011;5217;43.960;10.954;2022-11-30T04:10:56;14.90;;;13.47;;
10343;SDS011;5217;43.960;10.954;2022-11-30T04:13:27;14.83;;;13.53;;
10343;SDS011;5217;43.960;10.954;2022-11-30T04:15:57;13.90;;;12.63;;
10343;SDS011;5217;43.960;10.954;2022-11-30T04:18:26;14.43;;;13.13;;
10343;SDS011;5217;43.960;10.954;2022-11-30T04:20:56;14.90;;;13.50;;
10343;SDS011;5217;43.960;10.954;2022-11-30T04:23:28;15.00;;;13.53;;
10343;SDS011;5217;43.960;10.954;2022-11-30T04:25:57;15.97;;;13.33;;
10343;SDS011;5217;43.960;10.954;2022-11-30T04:28:26;14.10;;;12.67;;
10343;SDS011;5217;43.960;10.954;2022-11-30T04:30:54;13.13;;;11.93;;
10343;SDS011;5217;43.960;10.954;2022-11-30T04:33:23;12.67;;;11.50;;
10343;SDS011;5217;43.960;10.954;2022-11-30T04:35:52;13.13;;;11.83;;
10343;SDS011;5217;43.960;10.954;2022-11-30T04:38:23;12.73;;;11.40;;
10343;SDS011;5217;43.960;10.954;2022-11-30T04:40:52;12.20;;;11.10;;
10343;SDS011;5217;43.960;10.954;2022-11-30T04:43:21;11.97;;;10.87;;
10343;SDS011;5217;43.960;10.954;2022-11-30T04:45:50;12.73;;;11.53;;
10343;SDS011;5217;43.960;10.954;2022-11-30T04:48:19;12.30;;;11.10;;
10343;SDS011;5217;43.960;10.954;2022-11-30T04:50:47;18.30;;;16.67;;
10343;SDS011;5217;43.960;10.954;2022-11-30T04:53:15;27.73;;;25.23;;
10343;SDS011;5217;43.960;10.954;2022-11-30T04:55:45;29.70;;;26.97;;
10343;SDS011;5217;43.960;10.954;2022-11-30T04:58:14;24.10;;;21.93;;
10343;SDS011;5217;43.960;10.954;2022-11-30T05:00:42;21.43;;;19.50;;
10343;SDS011;5217;43.960;10.954;2022-11-30T05:03:10;18.50;;;16.80;;
10343;SDS011;5217;43.960;10.954;2022-11-30T05:05:38;18.83;;;14.73;;
10343;SDS011;5217;43.960;10.954;2022-11-30T05:08:07;13.63;;;12.23;;
10343;SDS011;5217;43.960;10.954;2022-11-30T05:10:36;13.10;;;11.70;;
10343;SDS011;5217;43.960;10.954;2022-11-30T05:13:06;13.93;;;12.43;;
10343;SDS011;5217;43.960;10.954;2022-11-30T05:15:34;12.70;;;11.40;;
10343;SDS011;5217;43.960;10.954;2022-11-30T05:18:03;12.50;;;11.30;;
10343;SDS011;5217;43.960;10.954;2022-11-30T05:20:31;12.67;;;11.47;;
10343;SDS011;5217;43.960;10.954;2022-11-30T05:22:59;12.13;;;11.07;;
10343;SDS011;5217;43.960;10.954;2022-11-30T05:25:28;12.97;;;11.77;;
10343;SDS011;5217;43.960;10.954;2022-11-30T05:27:56;12.03;;;10.93;;
10343;SDS011;5217;43.960;10.954;2022-11-30T05:30:26;12.23;;;11.13;;
10343;SDS011;5217;43.960;10.954;2022-11-30T05:32:54;12.33;;;11.23;;
10343;SDS011;5217;43.960;10.954;2022-11-30T05:35:22;13.17;;;11.90;;
10343;SDS011;5217;43.960;10.954;2022-11-30T05:37:51;13.30;;;12.03;;
10343;SDS011;5217;43.960;10.954;2022-11-30T05:40:19;11.90;;;10.80;;
10343;SDS011;5217;43.960;10.954;2022-11-30T05:42:53;13.07;;;11.87;;
10343;SDS011;5217;43.960;10.954;2022-11-30T05:45:21;12.70;;;11.53;;
10343;SDS011;5217;43.960;10.954;2022-11-30T05:47:51;11.60;;;10.50;;
10343;SDS011;5217;43.960;10.954;2022-11-30T05:50:20;12.77;;;11.57;;
10343;SDS011;5217;43.960;10.954;2022-11-30T05:52:48;13.50;;;12.20;;
10343;SDS011;5217;43.960;10.954;2022-11-30T05:55:21;13.00;;;11.80;;
10343;SDS011;5217;43.960;10.954;2022-11-30T05:57:50;24.67;;;22.20;;
10343;SDS011;5217;43.960;10.954;2022-11-30T06:00:19;41.37;;;37.07;;
10343;SDS011;5217;43.960;10.954;2022-11-30T06:02:48;32.33;;;29.03;;
10343;SDS011;5217;43.960;10.954;2022-11-30T06:05:24;26.03;;;23.43;;
10343;SDS011;5217;43.960;10.954;2022-11-30T06:07:53;18.53;;;16.73;;
10343;SDS011;5217;43.960;10.954;2022-11-30T06:10:22;15.57;;;14.07;;
10343;SDS011;5217;43.960;10.954;2022-11-30T06:12:52;14.80;;;13.37;;
10343;SDS011;5217;43.960;10.954;2022-11-30T06:15:20;13.90;;;12.60;;
10343;SDS011;5217;43.960;10.954;2022-11-30T06:17:49;13.00;;;11.80;;
10343;SDS011;5217;43.960;10.954;2022-11-30T06:20:19;11.67;;;10.57;;
10343;SDS011;5217;43.960;10.954;2022-11-30T06:22:47;11.83;;;10.73;;
10343;SDS011;5217;43.960;10.954;2022-11-30T06:25:15;10.87;;;9.90;;
10343;SDS011;5217;43.960;10.954;2022-11-30T06:27:44;12.07;;;10.87;;
10343;SDS011;5217;43.960;10.954;2022-11-30T06:30:13;11.87;;;10.77;;
10343;SDS011;5217;43.960;10.954;2022-11-30T06:32:43;12.20;;;11.03;;
10343;SDS011;5217;43.960;10.954;2022-11-30T06:35:11;11.33;;;10.23;;
10343;SDS011;5217;43.960;10.954;2022-11-30T06:37:42;11.00;;;9.90;;
10343;SDS011;5217;43.960;10.954;2022-11-30T06:40:11;10.27;;;9.27;;
10343;SDS011;5217;43.960;10.954;2022-11-30T06:42:40;12.93;;;11.63;;
10343;SDS011;5217;43.960;10.954;2022-11-30T06:45:08;12.90;;;11.60;;
10343;SDS011;5217;43.960;10.954;2022-11-30T06:47:37;13.27;;;11.50;;
10343;SDS011;5217;43.960;10.954;2022-11-30T06:50:05;12.17;;;10.97;;
10343;SDS011;5217;43.960;10.954;2022-11-30T06:52:35;11.87;;;10.63;;
10343;SDS011;5217;43.960;10.954;2022-11-30T06:55:05;12.23;;;10.83;;
10343;SDS011;5217;43.960;10.954;2022-11-30T06:57:34;12.43;;;10.83;;
10343;SDS011;5217;43.960;10.954;2022-11-30T07:00:02;15.37;;;13.77;;
10343;SDS011;5217;43.960;10.954;2022-11-30T07:02:32;14.20;;;12.70;;
10343;SDS011;5217;43.960;10.954;2022-11-30T07:05:01;13.63;;;12.23;;
10343;SDS011;5217;43.960;10.954;2022-11-30T07:07:29;12.13;;;10.93;;
10343;SDS011;5217;43.960;10.954;2022-11-30T07:09:58;9.57;;;8.67;;
10343;SDS011;5217;43.960;10.954;2022-11-30T07:12:28;9.20;;;8.40;;
10343;SDS011;5217;43.960;10.954;2022-11-30T07:14:56;8.90;;;8.10;;
10343;SDS011;5217;43.960;10.954;2022-11-30T07:17:24;8.47;;;7.67;;
10343;SDS011;5217;43.960;10.954;2022-11-30T07:19:53;10.20;;;9.20;;
10343;SDS011;5217;43.960;10.954;2022-11-30T07:22:21;9.67;;;8.77;;
10343;SDS011;5217;43.960;10.954;2022-11-30T07:24:49;8.50;;;7.80;;
10343;SDS011;5217;43.960;10.954;2022-11-30T07:27:36;8.70;;;7.90;;
10343;SDS011;5217;43.960;10.954;2022-11-30T07:30:05;8.93;;;8.03;;
10343;SDS011;5217;43.960;10.954;2022-11-30T07:32:35;7.87;;;7.17;;
10343;SDS011;5217;43.960;10.954;2022-11-30T07:35:04;8.17;;;7.37;;
10343;SDS011;5217;43.960;10.954;2022-11-30T07:37:32;8.67;;;7.90;;
10343;SDS011;5217;43.960;10.954;2022-11-30T07:40:01;8.57;;;7.80;;
10343;SDS011;5217;43.960;10.954;2022-11-30T07:42:30;8.10;;;7.40;;
10343;SDS011;5217;43.960;10.954;2022-11-30T07:45:00;7.57;;;6.87;;
10343;SDS011;5217;43.960;10.954;2022-11-30T07:47:29;7.63;;;6.93;;
10343;SDS011;5217;43.960;10.954;2022-11-30T07:49:58;7.60;;;6.90;;
10343;SDS011;5217;43.960;10.954;2022-11-30T07:52:26;7.30;;;6.70;;
10343;SDS011;5217;43.960;10.954;2022-11-30T07:54:56;7.00;;;6.37;;
10343;SDS011;5217;43.960;10.954;2022-11-30T07:57:24;6.70;;;6.10;;
10343;SDS011;5217;43.960;10.954;2022-11-30T07:59:53;6.37;;;5.77;;
10343;SDS011;5217;43.960;10.954;2022-11-30T08:02:23;5.77;;;5.27;;
10343;SDS011;5217;43.960;10.954;2022-11-30T08:04:52;6.93;;;6.33;;
10343;SDS011;5217;43.960;10.954;2022-11-30T08:07:23;6.37;;;5.87;;
10343;SDS011;5217;43.960;10.954;2022-11-30T08:09:51;6.30;;;5.80;;
10343;SDS011;5217;43.960;10.954;2022-11-30T08:12:19;6.90;;;6.23;;
10343;SDS011;5217;43.960;10.954;2022-11-30T08:14:48;6.37;;;5.77;;
10343;SDS011;5217;43.960;10.954;2022-11-30T08:17:38;6.83;;;6.20;;
10343;SDS011;5217;43.960;10.954;2022-11-30T08:20:07;6.93;;;6.33;;
10343;SDS011;5217;43.960;10.954;2022-11-30T08:22:36;6.70;;;6.10;;
10343;SDS011;5217;43.960;10.954;2022-11-30T08:25:05;7.33;;;6.63;;
10343;SDS011;5217;43.960;10.954;2022-11-30T08:27:34;7.40;;;6.70;;
10343;SDS011;5217;43.960;10.954;2022-11-30T08:30:03;8.37;;;7.43;;
10343;SDS011;5217;43.960;10.954;2022-11-30T08:32:33;6.57;;;5.97;;
10343;SDS011;5217;43.960;10.954;2022-11-30T08:35:03;8.00;;;6.63;;
10343;SDS011;5217;43.960;10.954;2022-11-30T08:37:34;7.03;;;6.43;;
10343;SDS011;5217;43.960;10.954;2022-11-30T08:40:03;6.70;;;6.10;;
10343;SDS011;5217;43.960;10.954;2022-11-30T08:42:33;6.80;;;6.20;;
10343;SDS011;5217;43.960;10.954;2022-11-30T08:45:01;6.47;;;5.87;;
10343;SDS011;5217;43.960;10.954;2022-11-30T08:47:30;6.43;;;5.80;;
10343;SDS011;5217;43.960;10.954;2022-11-30T08:49:58;6.50;;;5.90;;
10343;SDS011;5217;43.960;10.954;2022-11-30T08:52:28;6.10;;;5.60;;
10343;SDS011;5217;43.960;10.954;2022-11-30T08:54:56;6.80;;;6.20;;
10343;SDS011;5217;43.960;10.954;2022-11-30T08:57:25;6.40;;;5.90;;
10343;SDS011;5217;43.960;10.954;2022-11-30T08:59:53;7.03;;;6.33;;
10343;SDS011;5217;43.960;10.954;2022-11-30T09:02:21;6.67;;;6.07;;
10343;SDS011;5217;43.960;10.954;2022-11-30T09:04:50;6.53;;;5.93;;
10343;SDS011;5217;43.960;10.954;2022-11-30T09:07:19;6.90;;;6.30;;
10343;SDS011;5217;43.960;10.954;2022-11-30T09:09:49;6.63;;;6.03;;
10343;SDS011;5217;43.960;10.954;2022-11-30T09:12:17;6.00;;;5.30;;
10343;SDS011;5217;43.960;10.954;2022-11-30T09:14:46;6.30;;;5.70;;
10343;SDS011;5217;43.960;10.954;2022-11-30T09:17:23;6.60;;;6.10;;
10343;SDS011;5217;43.960;10.954;2022-11-30T09:19:51;6.40;;;5.80;;
10343;SDS011;5217;43.960;10.954;2022-11-30T09:22:20;6.53;;;6.00;;
10343;SDS011;5217;43.960;10.954;2022-11-30T09:24:50;7.20;;;6.53;;
10343;SDS011;5217;43.960;10.954;2022-11-30T09:27:18;6.47;;;5.87;;
10343;SDS011;5217;43.960;10.954;2022-11-30T09:29:47;6.73;;;6.13;;
10343;SDS011;5217;43.960;10.954;2022-11-30T09:32:15;6.57;;;5.60;;
10343;SDS011;5217;43.960;10.954;2022-11-30T09:34:43;6.53;;;5.93;;
10343;SDS011;5217;43.960;10.954;2022-11-30T09:37:13;5.83;;;5.33;;
10343;SDS011;5217;43.960;10.954;2022-11-30T09:39:41;5.80;;;5.30;;
10343;SDS011;5217;43.960;10.954;2022-11-30T09:42:17;6.00;;;5.37;;
10343;SDS011;5217;43.960;10.954;2022-11-30T09:45:01;6.63;;;5.83;;
10343;SDS011;5217;43.960;10.954;2022-11-30T09:47:40;6.60;;;5.90;;
10343;SDS011;5217;43.960;10.954;2022-11-30T09:50:25;6.77;;;6.17;;
10343;SDS011;5217;43.960;10.954;2022-11-30T09:52:57;6.97;;;6.27;;
10343;SDS011;5217;43.960;10.954;2022-11-30T09:55:30;8.00;;;6.20;;
10343;SDS011;5217;43.960;10.954;2022-11-30T09:58:06;7.20;;;6.60;;
10343;SDS011;5217;43.960;10.954;2022-11-30T10:00:38;7.93;;;7.23;;
10343;SDS011;5217;43.960;10.954;2022-11-30T10:03:07;8.07;;;7.37;;
10343;SDS011;5217;43.960;10.954;2022-11-30T10:05:40;7.50;;;6.80;;
10343;SDS011;5217;43.960;10.954;2022-11-30T10:08:17;8.93;;;8.03;;
10343;SDS011;5217;43.960;10.954;2022-11-30T10:11:01;6.93;;;6.30;;
10343;SDS011;5217;43.960;10.954;2022-11-30T10:13:45;6.27;;;5.67;;
10343;SDS011;5217;43.960;10.954;2022-11-30T10:16:23;7.10;;;6.50;;
10343;SDS011;5217;43.960;10.954;2022-11-30T10:18:57;6.87;;;6.23;;
10343;SDS011;5217;43.960;10.954;2022-11-30T10:21:35;6.73;;;6.13;;
10343;SDS011;5217;43.960;10.954;2022-11-30T10:24:17;7.10;;;6.40;;
10343;SDS011;5217;43.960;10.954;2022-11-30T10:26:56;6.20;;;5.70;;
10343;SDS011;5217;43.960;10.954;2022-11-30T10:29:28;5.97;;;5.47;;
10343;SDS011;5217;43.960;10.954;2022-11-30T10:32:03;7.47;;;6.77;;
10343;SDS011;5217;43.960;10.954;2022-11-30T10:34:39;6.80;;;6.20;;
10343;SDS011;5217;43.960;10.954;2022-11-30T10:37:10;7.77;;;7.07;;
10343;SDS011;5217;43.960;10.954;2022-11-30T10:39:45;6.70;;;6.10;;
10343;SDS011;5217;43.960;10.954;2022-11-30T10:42:23;6.80;;;6.20;;
10343;SDS011;5217;43.960;10.954;2022-11-30T10:44:59;6.47;;;5.93;;
10343;SDS011;5217;43.960;10.954;2022-11-30T10:47:32;7.50;;;6.67;;
10343;SDS011;5217;43.960;10.954;2022-11-30T10:50:03;10.67;;;9.60;;
10343;SDS011;5217;43.960;10.954;2022-11-30T10:52:42;9.23;;;8.33;;
10343;SDS011;5217;43.960;10.954;2022-11-30T10:55:14;7.90;;;6.77;;
10343;SDS011;5217;43.960;10.954;2022-11-30T10:57:46;7.80;;;7.10;;
10343;SDS011;5217;43.960;10.954;2022-11-30T11:00:18;7.00;;;6.30;;
10343;SDS011;5217;43.960;10.954;2022-11-30T11:02:48;6.37;;;5.77;;
10343;SDS011;5217;43.960;10.954;2022-11-30T11:05:18;6.63;;;6.03;;
10343;SDS011;5217;43.960;10.954;2022-11-30T11:07:50;6.07;;;5.43;;
10343;SDS011;5217;43.960;10.954;2022-11-30T11:10:29;6.80;;;6.20;;
10343;SDS011;5217;43.960;10.954;2022-11-30T11:13:01;7.07;;;6.40;;
10343;SDS011;5217;43.960;10.954;2022-11-30T11:15:32;6.90;;;6.20;;
10343;SDS011;5217;43.960;10.954;2022-11-30T11:18:12;6.63;;;6.13;;
10343;SDS011;5217;43.960;10.954;2022-11-30T11:20:48;7.87;;;6.33;;
10343;SDS011;5217;43.960;10.954;2022-11-30T11:23:32;6.90;;;6.30;;
10343;SDS011;5217;43.960;10.954;2022-11-30T11:26:05;6.70;;;6.10;;
10343;SDS011;5217;43.960;10.954;2022-11-30T11:28:42;7.18;;;6.55;;
10343;SDS011;5217;43.960;10.954;2022-11-30T11:31:15;7.27;;;6.57;;
10343;SDS011;5217;43.960;10.954;2022-11-30T11:33:50;7.20;;;6.50;;
10343;SDS011;5217;43.960;10.954;2022-11-30T11:36:23;7.23;;;6.53;;
10343;SDS011;5217;43.960;10.954;2022-11-30T11:38:54;7.40;;;6.67;;
10343;SDS011;5217;43.960;10.954;2022-11-30T11:41:24;7.43;;;6.78;;
10343;SDS011;5217;43.960;10.954;2022-11-30T11:43:57;7.13;;;6.53;;
10343;SDS011;5217;43.960;10.954;2022-11-30T11:46:29;7.97;;;7.28;;
10343;SDS011;5217;43.960;10.954;2022-11-30T11:49:02;7.82;;;7.03;;
10343;SDS011;5217;43.960;10.954;2022-11-30T11:51:32;7.50;;;6.82;;
10343;SDS011;5217;43.960;10.954;2022-11-30T11:54:04;6.68;;;6.10;;
10343;SDS011;5217;43.960;10.954;2022-11-30T11:56:43;6.63;;;6.07;;
10343;SDS011;5217;43.960;10.954;2022-11-30T11:59:12;6.75;;;6.15;;
10343;SDS011;5217;43.960;10.954;2022-11-30T12:01:47;6.43;;;5.82;;
10343;SDS011;5217;43.960;10.954;2022-11-30T12:04:31;6.80;;;6.20;;
10343;SDS011;5217;43.960;10.954;2022-11-30T12:07:16;8.02;;;7.22;;
10343;SDS011;5217;43.960;10.954;2022-11-30T12:09:52;7.90;;;7.20;;
10343;SDS011;5217;43.960;10.954;2022-11-30T12:12:26;7.97;;;7.30;;
10343;SDS011;5217;43.960;10.954;2022-11-30T12:14:55;7.83;;;7.23;;
10343;SDS011;5217;43.960;10.954;2022-11-30T12:17:28;8.10;;;7.40;;
10343;SDS011;5217;43.960;10.954;2022-11-30T12:20:12;8.13;;;7.13;;
10343;SDS011;5217;43.960;10.954;2022-11-30T12:22:53;9.83;;;8.87;;
10343;SDS011;5217;43.960;10.954;2022-11-30T12:25:45;9.50;;;8.60;;
10343;SDS011;5217;43.960;10.954;2022-11-30T12:28:23;9.37;;;8.57;;
10343;SDS011;5217;43.960;10.954;2022-11-30T12:30:59;9.20;;;8.30;;
10343;SDS011;5217;43.960;10.954;2022-11-30T12:36:34;10.67;;;9.57;;
10343;SDS011;5217;43.960;10.954;2022-11-30T12:39:14;20.23;;;9.67;;
10343;SDS011;5217;43.960;10.954;2022-11-30T12:41:52;9.53;;;8.53;;
10343;SDS011;5217;43.960;10.954;2022-11-30T12:44:29;9.33;;;8.50;;
10343;SDS011;5217;43.960;10.954;2022-11-30T12:47:10;9.93;;;9.03;;
10343;SDS011;5217;43.960;10.954;2022-11-30T12:50:00;8.57;;;7.67;;
10343;SDS011;5217;43.960;10.954;2022-11-30T12:52:41;8.13;;;7.33;;
10343;SDS011;5217;43.960;10.954;2022-11-30T12:55:23;8.20;;;7.40;;
10343;SDS011;5217;43.960;10.954;2022-11-30T12:58:00;8.47;;;7.67;;
10343;SDS011;5217;43.960;10.954;2022-11-30T13:00:36;9.70;;;8.70;;
10343;SDS011;5217;43.960;10.954;2022-11-30T13:03:17;8.07;;;7.37;;
10343;SDS011;5217;43.960;10.954;2022-11-30T13:06:19;7.60;;;6.90;;
10343;SDS011;5217;43.960;10.954;2022-11-30T13:08:52;7.87;;;7.17;;
10343;SDS011;5217;43.960;10.954;2022-11-30T13:11:26;8.30;;;7.60;;
10343;SDS011;5217;43.960;10.954;2022-11-30T13:13:59;7.00;;;6.40;;
10343;SDS011;5217;43.960;10.954;2022-11-30T13:16:28;7.80;;;7.10;;
10343;SDS011;5217;43.960;10.954;2022-11-30T13:19:03;7.00;;;6.40;;
10343;SDS011;5217;43.960;10.954;2022-11-30T13:21:45;7.53;;;6.93;;
10343;SDS011;5217;43.960;10.954;2022-11-30T13:24:18;7.50;;;6.80;;
10343;SDS011;5217;43.960;10.954;2022-11-30T13:26:54;7.37;;;6.67;;
10343;SDS011;5217;43.960;10.954;2022-11-30T13:32:28;8.60;;;7.80;;
10343;SDS011;5217;43.960;10.954;2022-11-30T13:35:38;10.60;;;9.60;;
10343;SDS011;5217;43.960;10.954;2022-11-30T13:38:19;10.50;;;9.50;;
10343;SDS011;5217;43.960;10.954;2022-11-30T13:41:04;9.93;;;9.03;;
10343;SDS011;5217;43.960;10.954;2022-11-30T13:43:35;9.57;;;8.50;;
10343;SDS011;5217;43.960;10.954;2022-11-30T13:46:14;8.37;;;7.57;;
10343;SDS011;5217;43.960;10.954;2022-11-30T13:48:45;8.50;;;7.70;;
10343;SDS011;5217;43.960;10.954;2022-11-30T13:57:15;12.53;;;11.37;;
10343;SDS011;5217;43.960;10.954;2022-11-30T14:00:02;9.17;;;8.27;;
10343;SDS011;5217;43.960;10.954;2022-11-30T14:03:16;14.10;;;9.40;;
10343;SDS011;5217;43.960;10.954;2022-11-30T14:05:51;10.80;;;9.70;;
10343;SDS011;5217;43.960;10.954;2022-11-30T14:08:31;10.43;;;9.43;;
10343;SDS011;5217;43.960;10.954;2022-11-30T14:17:13;9.43;;;8.20;;
10343;SDS011;5217;43.960;10.954;2022-11-30T14:19:46;8.77;;;7.77;;
10343;SDS011;5217;43.960;10.954;2022-11-30T14:22:18;9.17;;;8.37;;
10343;SDS011;5217;43.960;10.954;2022-11-30T14:24:47;9.80;;;8.87;;
10343;SDS011;5217;43.960;10.954;2022-11-30T14:27:19;8.73;;;7.83;;
10343;SDS011;5217;43.960;10.954;2022-11-30T14:29:50;8.87;;;7.97;;
10343;SDS011;5217;43.960;10.954;2022-11-30T14:32:26;7.80;;;7.00;;
10343;SDS011;5217;43.960;10.954;2022-11-30T14:35:02;7.73;;;7.03;;
10343;SDS011;5217;43.960;10.954;2022-11-30T14:37:38;6.50;;;6.00;;
10343;SDS011;5217;43.960;10.954;2022-11-30T14:40:15;7.40;;;6.70;;
10343;SDS011;5217;43.960;10.954;2022-11-30T14:42:49;7.87;;;7.17;;
10343;SDS011;5217;43.960;10.954;2022-11-30T14:45:20;8.07;;;7.33;;
10343;SDS011;5217;43.960;10.954;2022-11-30T14:47:50;10.30;;;9.30;;
10343;SDS011;5217;43.960;10.954;2022-11-30T14:50:22;9.87;;;8.97;;
10343;SDS011;5217;43.960;10.954;2022-11-30T14:52:55;7.50;;;6.80;;
10343;SDS011;5217;43.960;10.954;2022-11-30T14:55:32;8.00;;;7.20;;
10343;SDS011;5217;43.960;10.954;2022-11-30T14:58:11;7.13;;;6.53;;
10343;SDS011;5217;43.960;10.954;2022-11-30T15:00:45;6.90;;;6.27;;
10343;SDS011;5217;43.960;10.954;2022-11-30T15:03:16;8.90;;;8.10;;
10343;SDS011;5217;43.960;10.954;2022-11-30T15:05:49;8.30;;;7.50;;
10343;SDS011;5217;43.960;10.954;2022-11-30T15:08:19;9.17;;;8.37;;
10343;SDS011;5217;43.960;10.954;2022-11-30T15:10:48;9.17;;;8.37;;
10343;SDS011;5217;43.960;10.954;2022-11-30T15:13:18;9.63;;;8.63;;
10343;SDS011;5217;43.960;10.954;2022-11-30T15:15:50;9.00;;;8.10;;
10343;SDS011;5217;43.960;10.954;2022-11-30T15:18:21;10.13;;;9.20;;
10343;SDS011;5217;43.960;10.954;2022-11-30T15:20:52;11.80;;;10.60;;
10343;SDS011;5217;43.960;10.954;2022-11-30T15:23:24;10.67;;;9.57;;
10343;SDS011;5217;43.960;10.954;2022-11-30T15:25:54;9.90;;;9.00;;